METAR-Meldungen aus der Umgebung


Warning: A non-numeric value encountered in /homepages/1/d50633195/htdocs/bad-muskau-wetter/weather28/metar/metarDisplay.php on line 168

Warning: A non-numeric value encountered in /homepages/1/d50633195/htdocs/bad-muskau-wetter/weather28/metar/metarDisplay.php on line 168

Warning: A non-numeric value encountered in /homepages/1/d50633195/htdocs/bad-muskau-wetter/weather28/metar/metarDisplay.php on line 168

Warning: A non-numeric value encountered in /homepages/1/d50633195/htdocs/bad-muskau-wetter/weather28/metar/metarDisplay.php on line 168

Warning: A non-numeric value encountered in /homepages/1/d50633195/htdocs/bad-muskau-wetter/weather28/metar/metarDisplay.php on line 168

Warning: A non-numeric value encountered in /homepages/1/d50633195/htdocs/bad-muskau-wetter/weather28/metar/metarDisplay.php on line 168

Warning: A non-numeric value encountered in /homepages/1/d50633195/htdocs/bad-muskau-wetter/weather28/metar/metarDisplay.php on line 168
   
EDDC - Dresden/Klotzsch, Germany
Entfernung von der Station bis: SW 82 km
Aktualisierung: 14-10-2019 19:50
Klar  
Klar  
   Wind: SSO 20.4 km/h
Wind: SSO 20.4 km/h
Temperatur: 18°C
Taupunkt: 12°C
Luftfeuchte: 68%
Luftdruck: 1013 hPa
Sichtbarkeit: More than 10 km
Bewölkung: Klar
EDDC 141750Z 15011KT CAVOK 18/12 Q1013 NOSIG
EPZG - Zielona Gora, Poland
Entfernung von der Station bis: NO 99 km
Aktualisierung: 14-10-2019 20:00
Klar  
Klar  
   Wind: NO 7.4 km/h
Wind: NO 7.4 km/h
Temperatur: 18°C
Taupunkt: 14°C
Luftfeuchte: 78%
Luftdruck: 1015 hPa
Sichtbarkeit: More than 10 km
Bewölkung: Klar
EPZG 141800Z 05004KT CAVOK 18/14 Q1015
ETSH - Holzdorf, Germany
Entfernung von der Station bis: WNW 110 km
Aktualisierung: 14-10-2019 19:20
leicht bewölkt  
leicht bewölkt  
   Wind: Osten 7.4 km/h
Wind: Osten 7.4 km/h
Temperatur: 18°C
Taupunkt: 14°C
Luftfeuchte: 78%
Luftdruck: 1013 hPa
Bewölkt: leicht bewölkt
Sichtbarkeit: More than 10 km
Bewölkung: leicht bewölkt 30000 ft
ETSH 141720Z 08004KT 9999 FEW300 18/14 Q1013 BLU+
EDDB - Berlin/Schonefel, Germany
Entfernung von der Station bis: NW 124 km
Aktualisierung: 14-10-2019 19:50
Klar  
Klar  
   Wind: Osten 14.8 km/h
Wind: Osten 14.8 km/h
Temperatur: 17°C
Taupunkt: 14°C
Luftfeuchte: 83%
Luftdruck: 1013 hPa
Sichtbarkeit: More than 10 km
Bewölkung: Klar
EDDB 141750Z 08008KT CAVOK 17/14 Q1013 NOSIG
EDDT - Berlin/Tegel (fa, Germany
Entfernung von der Station bis: NW 149 km
Aktualisierung: 14-10-2019 19:50
Klar  
Klar  
   Wind: Osten 9.3 km/h
Wind: Osten 9.3 km/h
Temperatur: 18°C
Taupunkt: 13°C
Luftfeuchte: 73%
Luftdruck: 1013 hPa
Sichtbarkeit: More than 10 km
Bewölkung: Klar
EDDT 141750Z 08005KT 050V110 CAVOK 18/13 Q1013 NOSIG
LKVO - Vodochody, Czech Republic
Entfernung von der Station bis: S 149 km
Aktualisierung: 14-10-2019 15:00
Nicht aktuell
Klar  
Klar  
   Wind: Osten 11.1 km/h
Wind: Osten 11.1 km/h
Temperatur: 20°C
Taupunkt: 13°C
Luftfeuchte: 64%
Luftdruck: 1017 hPa
Sichtbarkeit: More than 10 km
Bewölkung: Klar
LKVO 141300Z 10006KT 060V150 CAVOK 20/13 Q1017
EPWR - Wroclaw/Strachow, Poland
Entfernung von der Station bis: OSO 157 km
Aktualisierung: 14-10-2019 20:00
Klar  
Klar  
   Wind: SO 9.3 km/h
Wind: SO 9.3 km/h
Temperatur: 17°C
Taupunkt: 13°C
Luftfeuchte: 77%
Luftdruck: 1015 hPa
Sichtbarkeit: More than 10 km
Bewölkung: Klar
EPWR 141800Z 14005KT CAVOK 17/13 Q1015
LKKB - Kbely, Czech Republic
Entfernung von der Station bis: S 159 km
Aktualisierung: 14-10-2019 20:00
Klar  
Klar  
   Wind: OSO 16.7 km/h
Wind: OSO 16.7 km/h
Temperatur: 15°C
Taupunkt: 12°C
Luftfeuchte: 82%
Luftdruck: 1015 hPa
Sichtbarkeit: More than 10 km
Bewölkung: Klar
LKKB 141800Z 12009KT CAVOK 15/12 Q1015 NOSIG
 

Script entwickelt von  Saratoga-weather.org Angepasst für das Template von  Weerstation Leuven